createdAt,value
2022-10-05T00:01:47.716Z,10.77
2022-10-05T00:04:18.593Z,10.57
2022-10-05T00:06:48.605Z,10.10
2022-10-05T00:09:18.987Z,10.02
2022-10-05T00:11:46.862Z,10.10
2022-10-05T00:14:17.583Z,10.18
2022-10-05T00:16:46.176Z,9.60
2022-10-05T00:19:21.954Z,10.18
2022-10-05T00:21:49.607Z,9.80
2022-10-05T00:24:20.558Z,9.63
2022-10-05T00:26:52.812Z,9.70
2022-10-05T00:29:25.081Z,10.45
2022-10-05T00:31:52.668Z,10.35
2022-10-05T00:34:21.853Z,10.63
2022-10-05T00:36:49.765Z,10.25
2022-10-05T00:39:19.272Z,10.75
2022-10-05T00:42:00.881Z,10.18
2022-10-05T00:44:37.707Z,10.50
2022-10-05T00:47:17.776Z,10.95
2022-10-05T00:50:02.027Z,10.88
2022-10-05T00:52:38.261Z,10.50
2022-10-05T00:55:14.609Z,10.75
2022-10-05T00:57:51.761Z,10.38
2022-10-05T01:00:24.397Z,11.00
2022-10-05T01:03:00.264Z,10.82
2022-10-05T01:05:52.021Z,10.15
2022-10-05T01:08:31.246Z,10.95
2022-10-05T01:11:04.872Z,10.68
2022-10-05T01:13:39.945Z,10.95
2022-10-05T01:16:16.238Z,11.73
2022-10-05T01:18:52.576Z,11.90
2022-10-05T01:21:24.066Z,11.93
2022-10-05T01:24:22.646Z,12.43
2022-10-05T01:27:10.498Z,12.30
2022-10-05T01:29:44.624Z,12.55
2022-10-05T01:32:23.863Z,12.73
2022-10-05T01:34:58.178Z,12.32
2022-10-05T01:37:29.646Z,12.95
2022-10-05T01:40:04.554Z,10.10
2022-10-05T01:42:43.880Z,12.77
2022-10-05T01:45:22.877Z,12.45
2022-10-05T01:47:56.490Z,10.23
2022-10-05T01:50:34.108Z,9.00
2022-10-05T01:53:09.318Z,7.57
2022-10-05T01:55:43.742Z,7.97
2022-10-05T01:58:20.255Z,7.17
2022-10-05T02:01:00.199Z,7.37
2022-10-05T02:03:32.803Z,8.67
2022-10-05T02:06:08.129Z,8.10
2022-10-05T02:08:42.336Z,7.43
2022-10-05T02:11:13.039Z,7.20
2022-10-05T02:13:44.541Z,9.10
2022-10-05T02:16:17.807Z,8.07
2022-10-05T02:18:51.525Z,9.50
2022-10-05T02:21:20.768Z,8.77
2022-10-05T02:23:53.244Z,8.23
2022-10-05T02:26:22.205Z,9.70
2022-10-05T02:28:54.490Z,9.60
2022-10-05T02:31:28.573Z,9.47
2022-10-05T02:34:28.087Z,8.30
2022-10-05T02:37:15.514Z,7.40
2022-10-05T02:39:57.126Z,8.23
2022-10-05T02:42:31.437Z,9.10
2022-10-05T02:45:11.018Z,9.27
2022-10-05T02:47:48.041Z,8.90
2022-10-05T02:50:24.409Z,9.33
2022-10-05T02:52:57.962Z,8.73
2022-10-05T02:55:34.962Z,9.23
2022-10-05T02:58:09.647Z,10.07
2022-10-05T03:00:46.599Z,9.80
2022-10-05T03:03:26.209Z,9.63
2022-10-05T03:05:59.647Z,10.00
2022-10-05T03:08:34.980Z,9.87
2022-10-05T03:11:09.388Z,9.03
2022-10-05T03:13:47.682Z,9.27
2022-10-05T03:16:34.886Z,9.10
2022-10-05T03:19:19.047Z,9.10
2022-10-05T03:21:55.620Z,9.83
2022-10-05T03:24:40.174Z,9.70
2022-10-05T03:27:18.692Z,10.10
2022-10-05T03:29:55.263Z,10.57
2022-10-05T03:32:32.409Z,15.18
2022-10-05T03:35:08.714Z,12.67
2022-10-05T03:37:46.368Z,11.00
2022-10-05T03:40:25.092Z,10.50
2022-10-05T03:43:07.189Z,9.80
2022-10-05T03:45:43.325Z,10.67
2022-10-05T03:48:15.245Z,10.47
2022-10-05T03:50:50.911Z,10.03
2022-10-05T03:53:21.731Z,8.83
2022-10-05T03:55:53.083Z,11.70
2022-10-05T03:58:25.562Z,11.43
2022-10-05T04:00:59.134Z,11.40
2022-10-05T04:03:34.418Z,10.57
2022-10-05T04:06:09.232Z,10.57
2022-10-05T04:08:47.770Z,9.53
2022-10-05T04:11:22.403Z,10.53
2022-10-05T04:13:55.573Z,10.10
2022-10-05T04:16:28.833Z,10.10
2022-10-05T04:19:02.329Z,8.57
2022-10-05T04:21:35.758Z,10.90
2022-10-05T04:24:10.172Z,10.47
2022-10-05T04:26:43.048Z,9.83
2022-10-05T04:29:19.041Z,10.83
2022-10-05T04:32:02.982Z,11.10
2022-10-05T04:34:59.086Z,10.87
2022-10-05T04:37:36.809Z,11.63
2022-10-05T04:40:18.778Z,11.90
2022-10-05T04:42:56.782Z,11.57
2022-10-05T04:45:41.687Z,13.10
2022-10-05T04:48:44.703Z,12.53
2022-10-05T04:51:26.172Z,11.97
2022-10-05T04:53:59.987Z,12.13
2022-10-05T04:56:35.330Z,13.27
2022-10-05T04:59:27.426Z,13.50
2022-10-05T05:02:06.665Z,12.90
2022-10-05T05:04:56.493Z,14.63
2022-10-05T05:07:36.052Z,12.00
2022-10-05T05:10:41.123Z,13.27
2022-10-05T05:13:24.955Z,12.47
2022-10-05T05:15:57.910Z,10.90
2022-10-05T05:18:49.827Z,12.73
2022-10-05T05:21:31.108Z,12.77
2022-10-05T05:24:06.511Z,12.67
2022-10-05T05:26:49.052Z,13.10
2022-10-05T05:29:32.038Z,12.07
2022-10-05T05:32:08.202Z,12.13
2022-10-05T05:34:49.065Z,11.13
2022-10-05T05:37:25.902Z,11.17
2022-10-05T05:40:04.685Z,12.00
2022-10-05T05:42:40.585Z,11.30
2022-10-05T05:45:17.889Z,10.13
2022-10-05T05:47:52.025Z,9.40
2022-10-05T05:50:34.612Z,9.17
2022-10-05T05:53:11.775Z,9.33
2022-10-05T05:55:42.721Z,10.00
2022-10-05T05:58:16.003Z,8.93
2022-10-05T06:00:51.129Z,9.33
2022-10-05T06:03:25.530Z,8.90
2022-10-05T06:05:57.497Z,9.03
2022-10-05T06:08:31.824Z,9.00
2022-10-05T06:11:02.671Z,9.60
2022-10-05T06:13:34.811Z,8.50
2022-10-05T06:16:11.469Z,10.20
2022-10-05T06:18:44.945Z,10.77
2022-10-05T06:21:19.536Z,11.13
2022-10-05T06:23:53.783Z,9.53
2022-10-05T06:26:41.013Z,9.47
2022-10-05T06:29:13.888Z,8.27
2022-10-05T06:31:59.143Z,7.83
2022-10-05T06:34:44.205Z,10.00
2022-10-05T06:37:19.585Z,8.47
2022-10-05T06:40:16.827Z,8.00
2022-10-05T06:43:11.272Z,7.53
2022-10-05T06:45:53.942Z,8.17
2022-10-05T06:48:33.227Z,8.03
2022-10-05T06:51:10.929Z,8.93
2022-10-05T06:53:46.450Z,8.63
2022-10-05T06:56:18.497Z,7.87
2022-10-05T06:58:55.914Z,7.57
2022-10-05T07:01:36.089Z,8.90
2022-10-05T07:04:36.818Z,8.03
2022-10-05T07:07:14.687Z,8.00
2022-10-05T07:09:53.693Z,7.83
2022-10-05T07:12:41.318Z,11.27
2022-10-05T07:15:23.448Z,10.37
2022-10-05T07:18:05.152Z,8.87
2022-10-05T07:20:49.066Z,8.53
2022-10-05T07:23:31.845Z,8.33
2022-10-05T07:26:06.617Z,7.50
2022-10-05T07:28:45.143Z,7.37
2022-10-05T07:31:19.455Z,7.13
2022-10-05T07:33:53.131Z,6.80
2022-10-05T07:36:50.937Z,6.03
2022-10-05T07:39:55.467Z,6.40
2022-10-05T07:42:31.219Z,6.60
2022-10-05T07:45:06.927Z,6.00
2022-10-05T07:47:39.808Z,5.90
2022-10-05T07:50:18.843Z,5.60
2022-10-05T07:52:52.962Z,4.90
2022-10-05T07:55:22.706Z,4.93
2022-10-05T07:57:57.741Z,5.32
2022-10-05T08:00:28.206Z,6.43
2022-10-05T08:03:00.493Z,6.72
2022-10-05T08:05:32.038Z,7.88
2022-10-05T08:08:07.924Z,11.00
2022-10-05T08:10:42.791Z,8.80
2022-10-05T08:13:17.861Z,8.60
2022-10-05T08:15:48.533Z,7.07
2022-10-05T08:18:22.722Z,7.43
2022-10-05T08:20:54.143Z,7.68
2022-10-05T08:23:35.908Z,6.93
2022-10-05T08:26:22.734Z,6.55
2022-10-05T08:29:00.254Z,6.57
2022-10-05T08:31:33.524Z,6.85
2022-10-05T08:34:19.140Z,6.20
2022-10-05T08:36:58.673Z,6.10
2022-10-05T08:39:32.781Z,6.80
2022-10-05T08:42:36.882Z,6.82
2022-10-05T08:45:29.858Z,6.55
2022-10-05T08:48:43.773Z,7.32
2022-10-05T08:51:43.690Z,7.88
2022-10-05T23:46:45.182Z,2.40
2022-10-05T23:49:14.604Z,2.33
2022-10-05T23:51:42.470Z,2.80
2022-10-05T23:54:10.211Z,2.33
2022-10-05T23:56:37.778Z,2.70
2022-10-05T23:59:05.594Z,2.40
